sensor_id;sensor_type;location;lat;lon;timestamp;P1;durP1;ratioP1;P2;durP2;ratioP2
17953;SDS011;9102;53.548;9.926;2023-01-23T00:02:05;3.83;;;2.00;;
17953;SDS011;9102;53.548;9.926;2023-01-23T00:04:33;3.80;;;2.28;;
17953;SDS011;9102;53.548;9.926;2023-01-23T00:07:00;4.97;;;2.20;;
17953;SDS011;9102;53.548;9.926;2023-01-23T00:09:28;6.75;;;2.30;;
17953;SDS011;9102;53.548;9.926;2023-01-23T00:11:55;6.20;;;2.63;;
17953;SDS011;9102;53.548;9.926;2023-01-23T00:14:22;8.77;;;2.38;;
17953;SDS011;9102;53.548;9.926;2023-01-23T00:16:49;5.13;;;2.33;;
17953;SDS011;9102;53.548;9.926;2023-01-23T00:19:16;6.38;;;1.88;;
17953;SDS011;9102;53.548;9.926;2023-01-23T00:21:44;2.85;;;1.88;;
17953;SDS011;9102;53.548;9.926;2023-01-23T00:24:11;5.95;;;1.98;;
17953;SDS011;9102;53.548;9.926;2023-01-23T00:26:38;6.65;;;2.30;;
17953;SDS011;9102;53.548;9.926;2023-01-23T00:29:05;4.38;;;1.90;;
17953;SDS011;9102;53.548;9.926;2023-01-23T00:31:33;4.53;;;1.90;;
17953;SDS011;9102;53.548;9.926;2023-01-23T00:34:02;3.17;;;1.90;;
17953;SDS011;9102;53.548;9.926;2023-01-23T00:36:32;4.43;;;2.20;;
17953;SDS011;9102;53.548;9.926;2023-01-23T00:39:02;3.20;;;1.65;;
17953;SDS011;9102;53.548;9.926;2023-01-23T00:41:31;5.60;;;1.85;;
17953;SDS011;9102;53.548;9.926;2023-01-23T00:43:58;5.97;;;1.88;;
17953;SDS011;9102;53.548;9.926;2023-01-23T00:46:25;8.25;;;1.90;;
17953;SDS011;9102;53.548;9.926;2023-01-23T00:48:52;7.95;;;2.17;;
17953;SDS011;9102;53.548;9.926;2023-01-23T00:51:18;3.42;;;1.83;;
17953;SDS011;9102;53.548;9.926;2023-01-23T00:53:45;5.28;;;2.03;;
17953;SDS011;9102;53.548;9.926;2023-01-23T00:56:14;4.70;;;2.47;;
17953;SDS011;9102;53.548;9.926;2023-01-23T00:58:40;5.18;;;2.47;;
17953;SDS011;9102;53.548;9.926;2023-01-23T01:01:07;6.20;;;3.78;;
17953;SDS011;9102;53.548;9.926;2023-01-23T01:03:35;8.45;;;2.72;;
17953;SDS011;9102;53.548;9.926;2023-01-23T01:06:02;7.15;;;2.60;;
17953;SDS011;9102;53.548;9.926;2023-01-23T01:08:29;7.78;;;3.05;;
17953;SDS011;9102;53.548;9.926;2023-01-23T01:10:56;4.22;;;2.30;;
17953;SDS011;9102;53.548;9.926;2023-01-23T01:13:24;6.03;;;3.00;;
17953;SDS011;9102;53.548;9.926;2023-01-23T01:15:51;8.07;;;2.92;;
17953;SDS011;9102;53.548;9.926;2023-01-23T01:18:19;9.60;;;3.15;;
17953;SDS011;9102;53.548;9.926;2023-01-23T01:20:47;8.88;;;3.17;;
17953;SDS011;9102;53.548;9.926;2023-01-23T01:23:14;7.40;;;2.78;;
17953;SDS011;9102;53.548;9.926;2023-01-23T01:25:41;6.75;;;2.58;;
17953;SDS011;9102;53.548;9.926;2023-01-23T01:28:08;5.07;;;2.65;;
17953;SDS011;9102;53.548;9.926;2023-01-23T01:30:36;8.48;;;2.95;;
17953;SDS011;9102;53.548;9.926;2023-01-23T01:33:04;8.02;;;3.30;;
17953;SDS011;9102;53.548;9.926;2023-01-23T01:35:30;4.35;;;2.63;;
17953;SDS011;9102;53.548;9.926;2023-01-23T01:37:58;3.88;;;2.35;;
17953;SDS011;9102;53.548;9.926;2023-01-23T01:40:25;6.38;;;2.67;;
17953;SDS011;9102;53.548;9.926;2023-01-23T01:43:00;4.35;;;2.35;;
17953;SDS011;9102;53.548;9.926;2023-01-23T01:48:30;4.55;;;1.95;;
17953;SDS011;9102;53.548;9.926;2023-01-23T01:50:59;4.10;;;2.00;;
17953;SDS011;9102;53.548;9.926;2023-01-23T01:53:29;3.25;;;2.08;;
17953;SDS011;9102;53.548;9.926;2023-01-23T01:55:57;4.40;;;2.00;;
17953;SDS011;9102;53.548;9.926;2023-01-23T01:58:25;6.07;;;2.42;;
17953;SDS011;9102;53.548;9.926;2023-01-23T02:00:53;6.30;;;2.50;;
17953;SDS011;9102;53.548;9.926;2023-01-23T02:03:22;5.05;;;2.35;;
17953;SDS011;9102;53.548;9.926;2023-01-23T02:05:50;7.47;;;2.78;;
17953;SDS011;9102;53.548;9.926;2023-01-23T02:08:18;6.50;;;2.38;;
17953;SDS011;9102;53.548;9.926;2023-01-23T02:10:49;5.38;;;2.20;;
17953;SDS011;9102;53.548;9.926;2023-01-23T02:13:18;5.70;;;3.55;;
17953;SDS011;9102;53.548;9.926;2023-01-23T02:15:47;5.07;;;2.42;;
17953;SDS011;9102;53.548;9.926;2023-01-23T02:18:14;8.10;;;3.30;;
17953;SDS011;9102;53.548;9.926;2023-01-23T02:20:43;5.00;;;2.78;;
17953;SDS011;9102;53.548;9.926;2023-01-23T02:23:11;5.35;;;3.20;;
17953;SDS011;9102;53.548;9.926;2023-01-23T02:25:54;9.02;;;3.78;;
17953;SDS011;9102;53.548;9.926;2023-01-23T02:28:23;7.38;;;3.63;;
17953;SDS011;9102;53.548;9.926;2023-01-23T02:31:02;8.82;;;3.70;;
17953;SDS011;9102;53.548;9.926;2023-01-23T02:33:46;5.45;;;3.72;;
17953;SDS011;9102;53.548;9.926;2023-01-23T02:36:15;9.20;;;4.32;;
17953;SDS011;9102;53.548;9.926;2023-01-23T02:38:44;7.50;;;3.95;;
17953;SDS011;9102;53.548;9.926;2023-01-23T02:41:22;8.25;;;4.13;;
17953;SDS011;9102;53.548;9.926;2023-01-23T02:43:53;7.80;;;4.53;;
17953;SDS011;9102;53.548;9.926;2023-01-23T02:46:22;10.32;;;3.88;;
17953;SDS011;9102;53.548;9.926;2023-01-23T02:48:49;10.35;;;4.85;;
17953;SDS011;9102;53.548;9.926;2023-01-23T02:51:16;9.88;;;4.47;;
17953;SDS011;9102;53.548;9.926;2023-01-23T02:53:44;9.43;;;4.57;;
17953;SDS011;9102;53.548;9.926;2023-01-23T02:56:13;7.05;;;4.40;;
17953;SDS011;9102;53.548;9.926;2023-01-23T02:58:42;7.63;;;4.28;;
17953;SDS011;9102;53.548;9.926;2023-01-23T03:01:26;10.20;;;4.80;;
17953;SDS011;9102;53.548;9.926;2023-01-23T03:03:53;9.40;;;4.05;;
17953;SDS011;9102;53.548;9.926;2023-01-23T03:06:28;7.78;;;4.80;;
17953;SDS011;9102;53.548;9.926;2023-01-23T03:09:00;8.15;;;4.47;;
17953;SDS011;9102;53.548;9.926;2023-01-23T03:11:29;13.30;;;4.78;;
17953;SDS011;9102;53.548;9.926;2023-01-23T03:13:58;7.50;;;4.35;;
17953;SDS011;9102;53.548;9.926;2023-01-23T03:16:25;8.32;;;3.83;;
17953;SDS011;9102;53.548;9.926;2023-01-23T03:18:52;7.88;;;4.25;;
17953;SDS011;9102;53.548;9.926;2023-01-23T03:21:21;8.93;;;4.22;;
17953;SDS011;9102;53.548;9.926;2023-01-23T03:23:48;10.55;;;4.18;;
17953;SDS011;9102;53.548;9.926;2023-01-23T03:26:15;6.95;;;4.07;;
17953;SDS011;9102;53.548;9.926;2023-01-23T03:28:42;10.80;;;4.63;;
17953;SDS011;9102;53.548;9.926;2023-01-23T03:31:27;8.07;;;4.85;;
17953;SDS011;9102;53.548;9.926;2023-01-23T03:33:54;9.73;;;4.35;;
17953;SDS011;9102;53.548;9.926;2023-01-23T03:36:21;9.90;;;5.00;;
17953;SDS011;9102;53.548;9.926;2023-01-23T03:38:47;8.38;;;4.88;;
17953;SDS011;9102;53.548;9.926;2023-01-23T03:41:32;9.98;;;5.78;;
17953;SDS011;9102;53.548;9.926;2023-01-23T03:43:59;8.85;;;5.28;;
17953;SDS011;9102;53.548;9.926;2023-01-23T03:46:25;12.68;;;6.03;;
17953;SDS011;9102;53.548;9.926;2023-01-23T03:48:53;10.00;;;5.22;;
17953;SDS011;9102;53.548;9.926;2023-01-23T03:51:20;11.10;;;5.60;;
17953;SDS011;9102;53.548;9.926;2023-01-23T03:53:47;10.73;;;5.95;;
17953;SDS011;9102;53.548;9.926;2023-01-23T03:56:14;9.05;;;6.03;;
17953;SDS011;9102;53.548;9.926;2023-01-23T03:58:41;10.55;;;5.43;;
17953;SDS011;9102;53.548;9.926;2023-01-23T04:01:07;11.45;;;6.25;;
17953;SDS011;9102;53.548;9.926;2023-01-23T04:03:36;10.88;;;5.40;;
17953;SDS011;9102;53.548;9.926;2023-01-23T04:06:03;10.05;;;5.07;;
17953;SDS011;9102;53.548;9.926;2023-01-23T04:08:30;10.05;;;5.63;;
17953;SDS011;9102;53.548;9.926;2023-01-23T04:11:00;10.93;;;5.15;;
17953;SDS011;9102;53.548;9.926;2023-01-23T04:13:28;9.77;;;5.40;;
17953;SDS011;9102;53.548;9.926;2023-01-23T04:15:55;10.98;;;5.25;;
17953;SDS011;9102;53.548;9.926;2023-01-23T04:18:22;9.13;;;5.50;;
17953;SDS011;9102;53.548;9.926;2023-01-23T04:20:50;9.77;;;5.50;;
17953;SDS011;9102;53.548;9.926;2023-01-23T04:23:17;13.45;;;6.03;;
17953;SDS011;9102;53.548;9.926;2023-01-23T04:25:44;9.02;;;5.15;;
17953;SDS011;9102;53.548;9.926;2023-01-23T04:28:11;8.90;;;5.18;;
17953;SDS011;9102;53.548;9.926;2023-01-23T04:30:38;8.35;;;5.05;;
17953;SDS011;9102;53.548;9.926;2023-01-23T04:33:04;12.43;;;4.75;;
17953;SDS011;9102;53.548;9.926;2023-01-23T04:35:32;7.20;;;4.80;;
17953;SDS011;9102;53.548;9.926;2023-01-23T04:38:01;8.32;;;4.88;;
17953;SDS011;9102;53.548;9.926;2023-01-23T04:40:28;6.97;;;5.20;;
17953;SDS011;9102;53.548;9.926;2023-01-23T04:42:55;9.48;;;4.90;;
17953;SDS011;9102;53.548;9.926;2023-01-23T04:45:22;8.55;;;5.00;;
17953;SDS011;9102;53.548;9.926;2023-01-23T04:47:48;7.20;;;4.97;;
17953;SDS011;9102;53.548;9.926;2023-01-23T04:50:15;7.80;;;4.85;;
17953;SDS011;9102;53.548;9.926;2023-01-23T04:52:42;7.85;;;5.15;;
17953;SDS011;9102;53.548;9.926;2023-01-23T04:55:10;7.57;;;4.82;;
17953;SDS011;9102;53.548;9.926;2023-01-23T04:57:37;10.38;;;4.82;;
17953;SDS011;9102;53.548;9.926;2023-01-23T05:00:04;8.73;;;4.30;;
17953;SDS011;9102;53.548;9.926;2023-01-23T05:02:32;10.15;;;4.82;;
17953;SDS011;9102;53.548;9.926;2023-01-23T05:04:59;7.43;;;4.40;;
17953;SDS011;9102;53.548;9.926;2023-01-23T05:07:26;9.82;;;4.85;;
17953;SDS011;9102;53.548;9.926;2023-01-23T05:09:52;6.90;;;4.50;;
17953;SDS011;9102;53.548;9.926;2023-01-23T05:12:21;7.82;;;4.53;;
17953;SDS011;9102;53.548;9.926;2023-01-23T05:14:47;6.45;;;4.28;;
17953;SDS011;9102;53.548;9.926;2023-01-23T05:17:14;8.25;;;4.90;;
17953;SDS011;9102;53.548;9.926;2023-01-23T05:19:41;9.48;;;5.03;;
17953;SDS011;9102;53.548;9.926;2023-01-23T05:22:08;8.82;;;5.10;;
17953;SDS011;9102;53.548;9.926;2023-01-23T05:24:35;10.75;;;5.70;;
17953;SDS011;9102;53.548;9.926;2023-01-23T05:27:01;7.50;;;4.72;;
17953;SDS011;9102;53.548;9.926;2023-01-23T05:29:30;12.55;;;5.40;;
17953;SDS011;9102;53.548;9.926;2023-01-23T05:31:56;7.88;;;5.50;;
17953;SDS011;9102;53.548;9.926;2023-01-23T05:34:23;9.48;;;5.13;;
17953;SDS011;9102;53.548;9.926;2023-01-23T05:36:50;9.77;;;5.60;;
17953;SDS011;9102;53.548;9.926;2023-01-23T05:39:17;10.73;;;5.32;;
17953;SDS011;9102;53.548;9.926;2023-01-23T05:41:44;8.13;;;4.80;;
17953;SDS011;9102;53.548;9.926;2023-01-23T05:44:10;11.18;;;5.57;;
17953;SDS011;9102;53.548;9.926;2023-01-23T05:46:38;11.00;;;5.45;;
17953;SDS011;9102;53.548;9.926;2023-01-23T05:49:05;7.97;;;5.13;;
17953;SDS011;9102;53.548;9.926;2023-01-23T05:51:32;9.05;;;5.43;;
17953;SDS011;9102;53.548;9.926;2023-01-23T05:53:59;11.80;;;5.93;;
17953;SDS011;9102;53.548;9.926;2023-01-23T05:56:27;9.15;;;5.80;;
17953;SDS011;9102;53.548;9.926;2023-01-23T05:58:54;9.65;;;5.60;;
17953;SDS011;9102;53.548;9.926;2023-01-23T06:01:21;10.00;;;5.70;;
17953;SDS011;9102;53.548;9.926;2023-01-23T06:03:50;11.93;;;6.30;;
17953;SDS011;9102;53.548;9.926;2023-01-23T06:06:17;13.18;;;5.85;;
17953;SDS011;9102;53.548;9.926;2023-01-23T06:08:44;8.55;;;5.55;;
17953;SDS011;9102;53.548;9.926;2023-01-23T06:11:10;10.60;;;6.38;;
17953;SDS011;9102;53.548;9.926;2023-01-23T06:13:37;13.00;;;6.28;;
17953;SDS011;9102;53.548;9.926;2023-01-23T06:16:04;9.82;;;5.93;;
17953;SDS011;9102;53.548;9.926;2023-01-23T06:18:32;11.40;;;6.22;;
17953;SDS011;9102;53.548;9.926;2023-01-23T06:21:00;9.88;;;5.85;;
17953;SDS011;9102;53.548;9.926;2023-01-23T06:23:27;10.02;;;5.85;;
17953;SDS011;9102;53.548;9.926;2023-01-23T06:25:57;15.30;;;8.52;;
17953;SDS011;9102;53.548;9.926;2023-01-23T06:28:24;10.68;;;6.18;;
17953;SDS011;9102;53.548;9.926;2023-01-23T06:30:51;10.98;;;6.38;;
17953;SDS011;9102;53.548;9.926;2023-01-23T06:33:18;14.15;;;6.50;;
17953;SDS011;9102;53.548;9.926;2023-01-23T06:35:45;13.88;;;6.72;;
17953;SDS011;9102;53.548;9.926;2023-01-23T06:38:13;15.32;;;6.93;;
17953;SDS011;9102;53.548;9.926;2023-01-23T06:40:40;12.48;;;6.35;;
17953;SDS011;9102;53.548;9.926;2023-01-23T06:43:06;13.82;;;7.45;;
17953;SDS011;9102;53.548;9.926;2023-01-23T06:45:33;11.93;;;6.70;;
17953;SDS011;9102;53.548;9.926;2023-01-23T06:48:00;11.27;;;6.95;;
17953;SDS011;9102;53.548;9.926;2023-01-23T06:50:27;15.75;;;7.07;;
17953;SDS011;9102;53.548;9.926;2023-01-23T06:52:54;11.05;;;7.30;;
17953;SDS011;9102;53.548;9.926;2023-01-23T06:55:22;12.82;;;7.22;;
17953;SDS011;9102;53.548;9.926;2023-01-23T06:57:48;14.48;;;7.50;;
17953;SDS011;9102;53.548;9.926;2023-01-23T07:00:15;13.68;;;7.78;;
17953;SDS011;9102;53.548;9.926;2023-01-23T07:02:43;13.50;;;7.65;;
17953;SDS011;9102;53.548;9.926;2023-01-23T07:05:11;13.10;;;7.03;;
17953;SDS011;9102;53.548;9.926;2023-01-23T07:07:38;12.75;;;8.18;;
17953;SDS011;9102;53.548;9.926;2023-01-23T07:10:05;14.82;;;7.50;;
17953;SDS011;9102;53.548;9.926;2023-01-23T07:12:34;14.45;;;7.78;;
17953;SDS011;9102;53.548;9.926;2023-01-23T07:15:01;14.18;;;7.38;;
17953;SDS011;9102;53.548;9.926;2023-01-23T07:17:28;15.57;;;7.15;;
17953;SDS011;9102;53.548;9.926;2023-01-23T07:19:55;13.35;;;7.53;;
17953;SDS011;9102;53.548;9.926;2023-01-23T07:22:22;12.43;;;7.32;;
17953;SDS011;9102;53.548;9.926;2023-01-23T07:24:49;13.60;;;8.27;;
17953;SDS011;9102;53.548;9.926;2023-01-23T07:27:15;11.57;;;7.38;;
17953;SDS011;9102;53.548;9.926;2023-01-23T07:29:44;16.00;;;7.72;;
17953;SDS011;9102;53.548;9.926;2023-01-23T07:32:10;15.60;;;7.22;;
17953;SDS011;9102;53.548;9.926;2023-01-23T07:34:37;17.48;;;8.23;;
17953;SDS011;9102;53.548;9.926;2023-01-23T07:37:04;11.05;;;7.32;;
17953;SDS011;9102;53.548;9.926;2023-01-23T07:39:31;13.10;;;8.00;;
17953;SDS011;9102;53.548;9.926;2023-01-23T07:41:58;15.05;;;8.05;;
17953;SDS011;9102;53.548;9.926;2023-01-23T07:44:25;12.90;;;8.23;;
17953;SDS011;9102;53.548;9.926;2023-01-23T07:46:53;15.30;;;7.80;;
17953;SDS011;9102;53.548;9.926;2023-01-23T07:49:20;14.10;;;8.07;;
17953;SDS011;9102;53.548;9.926;2023-01-23T07:51:46;13.85;;;7.53;;
17953;SDS011;9102;53.548;9.926;2023-01-23T07:54:13;12.82;;;7.72;;
17953;SDS011;9102;53.548;9.926;2023-01-23T07:56:40;14.38;;;7.90;;
17953;SDS011;9102;53.548;9.926;2023-01-23T07:59:07;13.77;;;7.97;;
17953;SDS011;9102;53.548;9.926;2023-01-23T08:01:34;12.07;;;7.15;;
17953;SDS011;9102;53.548;9.926;2023-01-23T08:04:02;11.15;;;7.13;;
17953;SDS011;9102;53.548;9.926;2023-01-23T08:06:29;16.52;;;8.90;;
17953;SDS011;9102;53.548;9.926;2023-01-23T08:08:58;12.77;;;8.15;;
17953;SDS011;9102;53.548;9.926;2023-01-23T08:11:25;15.80;;;7.50;;
17953;SDS011;9102;53.548;9.926;2023-01-23T08:13:51;14.95;;;8.35;;
17953;SDS011;9102;53.548;9.926;2023-01-23T08:16:18;13.27;;;7.47;;
17953;SDS011;9102;53.548;9.926;2023-01-23T08:18:45;16.88;;;8.02;;
17953;SDS011;9102;53.548;9.926;2023-01-23T08:21:13;12.93;;;7.82;;
17953;SDS011;9102;53.548;9.926;2023-01-23T08:23:40;17.10;;;7.93;;
17953;SDS011;9102;53.548;9.926;2023-01-23T08:26:07;13.43;;;8.05;;
17953;SDS011;9102;53.548;9.926;2023-01-23T08:28:37;13.27;;;8.68;;
17953;SDS011;9102;53.548;9.926;2023-01-23T08:31:05;17.65;;;8.05;;
17953;SDS011;9102;53.548;9.926;2023-01-23T08:33:34;18.17;;;8.93;;
17953;SDS011;9102;53.548;9.926;2023-01-23T08:36:01;18.75;;;8.57;;
17953;SDS011;9102;53.548;9.926;2023-01-23T08:38:30;13.75;;;8.15;;
17953;SDS011;9102;53.548;9.926;2023-01-23T08:40:58;14.75;;;8.57;;
17953;SDS011;9102;53.548;9.926;2023-01-23T08:43:26;16.30;;;9.07;;
17953;SDS011;9102;53.548;9.926;2023-01-23T08:45:54;15.27;;;8.65;;
17953;SDS011;9102;53.548;9.926;2023-01-23T08:48:22;16.00;;;8.60;;
17953;SDS011;9102;53.548;9.926;2023-01-23T08:50:51;14.75;;;8.82;;
17953;SDS011;9102;53.548;9.926;2023-01-23T08:53:25;15.95;;;8.73;;
17953;SDS011;9102;53.548;9.926;2023-01-23T08:55:56;14.20;;;8.68;;
17953;SDS011;9102;53.548;9.926;2023-01-23T08:58:24;16.85;;;8.95;;
17953;SDS011;9102;53.548;9.926;2023-01-23T09:00:51;18.15;;;8.15;;
17953;SDS011;9102;53.548;9.926;2023-01-23T09:03:18;15.15;;;8.02;;
17953;SDS011;9102;53.548;9.926;2023-01-23T09:05:45;15.70;;;8.40;;
17953;SDS011;9102;53.548;9.926;2023-01-23T09:08:12;13.52;;;7.88;;
17953;SDS011;9102;53.548;9.926;2023-01-23T09:10:39;13.98;;;8.20;;
17953;SDS011;9102;53.548;9.926;2023-01-23T09:13:07;14.40;;;8.35;;
17953;SDS011;9102;53.548;9.926;2023-01-23T09:15:36;18.48;;;9.57;;
17953;SDS011;9102;53.548;9.926;2023-01-23T09:18:03;15.85;;;8.75;;
17953;SDS011;9102;53.548;9.926;2023-01-23T09:20:30;17.05;;;8.55;;
17953;SDS011;9102;53.548;9.926;2023-01-23T09:22:57;14.50;;;8.57;;
17953;SDS011;9102;53.548;9.926;2023-01-23T09:25:24;14.57;;;8.68;;
17953;SDS011;9102;53.548;9.926;2023-01-23T09:27:51;14.35;;;8.50;;
17953;SDS011;9102;53.548;9.926;2023-01-23T09:30:19;15.35;;;8.82;;
17953;SDS011;9102;53.548;9.926;2023-01-23T09:32:45;18.30;;;9.10;;
17953;SDS011;9102;53.548;9.926;2023-01-23T09:35:12;18.08;;;9.43;;
17953;SDS011;9102;53.548;9.926;2023-01-23T09:37:39;17.70;;;9.75;;
17953;SDS011;9102;53.548;9.926;2023-01-23T09:40:24;16.98;;;9.43;;
17953;SDS011;9102;53.548;9.926;2023-01-23T09:42:53;20.10;;;10.07;;
17953;SDS011;9102;53.548;9.926;2023-01-23T09:45:27;18.33;;;9.60;;
17953;SDS011;9102;53.548;9.926;2023-01-23T09:47:56;18.35;;;9.85;;
17953;SDS011;9102;53.548;9.926;2023-01-23T09:50:31;15.80;;;8.80;;
17953;SDS011;9102;53.548;9.926;2023-01-23T09:53:04;16.88;;;9.73;;
17953;SDS011;9102;53.548;9.926;2023-01-23T09:55:38;18.60;;;9.50;;
17953;SDS011;9102;53.548;9.926;2023-01-23T09:58:10;18.73;;;9.40;;
17953;SDS011;9102;53.548;9.926;2023-01-23T10:00:44;18.13;;;10.27;;
17953;SDS011;9102;53.548;9.926;2023-01-23T10:03:13;19.77;;;9.93;;
17953;SDS011;9102;53.548;9.926;2023-01-23T10:05:45;16.95;;;10.15;;
17953;SDS011;9102;53.548;9.926;2023-01-23T10:08:24;19.13;;;10.05;;
17953;SDS011;9102;53.548;9.926;2023-01-23T10:10:58;15.57;;;9.32;;
17953;SDS011;9102;53.548;9.926;2023-01-23T10:13:41;25.90;;;10.32;;
17953;SDS011;9102;53.548;9.926;2023-01-23T10:19:15;20.83;;;10.02;;
17953;SDS011;9102;53.548;9.926;2023-01-23T10:21:54;17.55;;;8.98;;
17953;SDS011;9102;53.548;9.926;2023-01-23T10:24:31;19.90;;;9.93;;
17953;SDS011;9102;53.548;9.926;2023-01-23T10:27:13;19.58;;;10.23;;
17953;SDS011;9102;53.548;9.926;2023-01-23T10:29:44;17.63;;;9.43;;
17953;SDS011;9102;53.548;9.926;2023-01-23T10:32:19;19.10;;;8.90;;
17953;SDS011;9102;53.548;9.926;2023-01-23T10:34:53;21.90;;;10.57;;
17953;SDS011;9102;53.548;9.926;2023-01-23T10:37:28;18.92;;;9.15;;
17953;SDS011;9102;53.548;9.926;2023-01-23T10:40:06;24.55;;;9.45;;
17953;SDS011;9102;53.548;9.926;2023-01-23T10:42:37;25.27;;;9.73;;
17953;SDS011;9102;53.548;9.926;2023-01-23T10:45:04;19.25;;;10.05;;
17953;SDS011;9102;53.548;9.926;2023-01-23T10:47:35;18.35;;;9.77;;
17953;SDS011;9102;53.548;9.926;2023-01-23T10:50:03;23.00;;;10.65;;
17953;SDS011;9102;53.548;9.926;2023-01-23T10:52:31;18.70;;;10.05;;
17953;SDS011;9102;53.548;9.926;2023-01-23T10:55:01;20.10;;;9.50;;
17953;SDS011;9102;53.548;9.926;2023-01-23T10:57:31;21.45;;;10.82;;
17953;SDS011;9102;53.548;9.926;2023-01-23T11:00:16;22.27;;;10.15;;
17953;SDS011;9102;53.548;9.926;2023-01-23T11:02:52;20.20;;;10.27;;
17953;SDS011;9102;53.548;9.926;2023-01-23T11:05:36;19.23;;;10.50;;
17953;SDS011;9102;53.548;9.926;2023-01-23T11:08:07;24.52;;;10.63;;
17953;SDS011;9102;53.548;9.926;2023-01-23T11:10:48;17.02;;;9.73;;
17953;SDS011;9102;53.548;9.926;2023-01-23T11:13:20;23.75;;;10.48;;
17953;SDS011;9102;53.548;9.926;2023-01-23T11:15:51;23.30;;;10.13;;
17953;SDS011;9102;53.548;9.926;2023-01-23T11:18:27;23.92;;;10.77;;
17953;SDS011;9102;53.548;9.926;2023-01-23T11:20:57;26.73;;;10.23;;
17953;SDS011;9102;53.548;9.926;2023-01-23T11:23:24;18.58;;;9.77;;
17953;SDS011;9102;53.548;9.926;2023-01-23T11:25:52;21.05;;;10.68;;
17953;SDS011;9102;53.548;9.926;2023-01-23T11:28:20;19.25;;;9.57;;
17953;SDS011;9102;53.548;9.926;2023-01-23T11:30:51;20.25;;;9.73;;
17953;SDS011;9102;53.548;9.926;2023-01-23T11:33:28;16.83;;;9.70;;
17953;SDS011;9102;53.548;9.926;2023-01-23T11:36:05;20.35;;;10.68;;
17953;SDS011;9102;53.548;9.926;2023-01-23T11:38:44;19.70;;;10.48;;
17953;SDS011;9102;53.548;9.926;2023-01-23T11:41:13;18.88;;;10.30;;
17953;SDS011;9102;53.548;9.926;2023-01-23T11:43:40;20.85;;;9.95;;
17953;SDS011;9102;53.548;9.926;2023-01-23T11:46:13;23.92;;;10.55;;
17953;SDS011;9102;53.548;9.926;2023-01-23T11:49:02;23.38;;;11.15;;
17953;SDS011;9102;53.548;9.926;2023-01-23T11:51:45;21.73;;;9.85;;
17953;SDS011;9102;53.548;9.926;2023-01-23T11:54:30;20.45;;;10.43;;
17953;SDS011;9102;53.548;9.926;2023-01-23T11:57:08;21.23;;;10.25;;
17953;SDS011;9102;53.548;9.926;2023-01-23T11:59:44;21.27;;;9.80;;
17953;SDS011;9102;53.548;9.926;2023-01-23T12:05:32;19.75;;;9.77;;
17953;SDS011;9102;53.548;9.926;2023-01-23T12:08:17;21.42;;;9.75;;
17953;SDS011;9102;53.548;9.926;2023-01-23T12:10:48;24.25;;;9.93;;
17953;SDS011;9102;53.548;9.926;2023-01-23T12:13:41;20.70;;;10.23;;
17953;SDS011;9102;53.548;9.926;2023-01-23T12:16:25;23.30;;;11.23;;
17953;SDS011;9102;53.548;9.926;2023-01-23T12:19:09;19.85;;;10.00;;
17953;SDS011;9102;53.548;9.926;2023-01-23T12:21:46;22.42;;;10.63;;
17953;SDS011;9102;53.548;9.926;2023-01-23T12:24:26;21.80;;;11.02;;
17953;SDS011;9102;53.548;9.926;2023-01-23T12:27:05;24.67;;;11.25;;
17953;SDS011;9102;53.548;9.926;2023-01-23T12:29:59;21.95;;;10.63;;
17953;SDS011;9102;53.548;9.926;2023-01-23T12:32:51;28.67;;;12.35;;
17953;SDS011;9102;53.548;9.926;2023-01-23T12:35:29;24.27;;;10.65;;
17953;SDS011;9102;53.548;9.926;2023-01-23T12:40:51;25.55;;;11.95;;
17953;SDS011;9102;53.548;9.926;2023-01-23T12:43:30;29.73;;;13.15;;
17953;SDS011;9102;53.548;9.926;2023-01-23T12:46:02;80.05;;;35.13;;
17953;SDS011;9102;53.548;9.926;2023-01-23T12:48:34;28.48;;;13.82;;
17953;SDS011;9102;53.548;9.926;2023-01-23T12:51:10;25.08;;;11.48;;
17953;SDS011;9102;53.548;9.926;2023-01-23T12:53:43;27.00;;;12.30;;
17953;SDS011;9102;53.548;9.926;2023-01-23T12:56:16;22.02;;;11.05;;
17953;SDS011;9102;53.548;9.926;2023-01-23T12:58:50;22.67;;;11.65;;
17953;SDS011;9102;53.548;9.926;2023-01-23T13:01:28;24.17;;;11.57;;
17953;SDS011;9102;53.548;9.926;2023-01-23T13:04:17;23.23;;;11.60;;
17953;SDS011;9102;53.548;9.926;2023-01-23T13:06:56;23.15;;;10.52;;
17953;SDS011;9102;53.548;9.926;2023-01-23T13:09:38;18.67;;;9.32;;
17953;SDS011;9102;53.548;9.926;2023-01-23T13:12:16;20.80;;;10.15;;
17953;SDS011;9102;53.548;9.926;2023-01-23T13:14:46;19.30;;;9.77;;
17953;SDS011;9102;53.548;9.926;2023-01-23T13:17:27;19.67;;;10.15;;
17953;SDS011;9102;53.548;9.926;2023-01-23T13:20:09;17.70;;;8.93;;
17953;SDS011;9102;53.548;9.926;2023-01-23T13:23:19;21.25;;;10.75;;
17953;SDS011;9102;53.548;9.926;2023-01-23T13:28:39;21.38;;;10.20;;
17953;SDS011;9102;53.548;9.926;2023-01-23T13:31:07;21.60;;;10.57;;
17953;SDS011;9102;53.548;9.926;2023-01-23T13:33:57;18.67;;;9.90;;
17953;SDS011;9102;53.548;9.926;2023-01-23T13:36:28;26.52;;;12.82;;
17953;SDS011;9102;53.548;9.926;2023-01-23T13:51:34;19.90;;;10.25;;
17953;SDS011;9102;53.548;9.926;2023-01-23T13:54:01;19.55;;;10.57;;
17953;SDS011;9102;53.548;9.926;2023-01-23T13:57:00;21.48;;;9.77;;
17953;SDS011;9102;53.548;9.926;2023-01-23T13:59:33;19.77;;;10.10;;
17953;SDS011;9102;53.548;9.926;2023-01-23T14:02:16;19.95;;;9.98;;
17953;SDS011;9102;53.548;9.926;2023-01-23T14:05:04;21.95;;;9.55;;
17953;SDS011;9102;53.548;9.926;2023-01-23T14:07:38;19.52;;;10.75;;
17953;SDS011;9102;53.548;9.926;2023-01-23T14:10:23;19.20;;;9.82;;
17953;SDS011;9102;53.548;9.926;2023-01-23T14:13:00;20.83;;;9.80;;
17953;SDS011;9102;53.548;9.926;2023-01-23T14:15:28;18.08;;;9.30;;
17953;SDS011;9102;53.548;9.926;2023-01-23T14:18:18;20.17;;;9.55;;
17953;SDS011;9102;53.548;9.926;2023-01-23T14:20:52;20.63;;;10.52;;
17953;SDS011;9102;53.548;9.926;2023-01-23T14:23:22;25.33;;;12.50;;
17953;SDS011;9102;53.548;9.926;2023-01-23T14:25:53;20.02;;;10.05;;
17953;SDS011;9102;53.548;9.926;2023-01-23T14:28:20;22.98;;;12.82;;
17953;SDS011;9102;53.548;9.926;2023-01-23T14:30:54;20.88;;;11.00;;
17953;SDS011;9102;53.548;9.926;2023-01-23T14:33:24;19.48;;;9.95;;
17953;SDS011;9102;53.548;9.926;2023-01-23T14:35:51;21.98;;;10.55;;
17953;SDS011;9102;53.548;9.926;2023-01-23T14:38:26;20.75;;;10.80;;
17953;SDS011;9102;53.548;9.926;2023-01-23T14:40:57;21.83;;;10.68;;
17953;SDS011;9102;53.548;9.926;2023-01-23T14:43:25;21.17;;;10.73;;
17953;SDS011;9102;53.548;9.926;2023-01-23T14:45:56;21.65;;;10.75;;
17953;SDS011;9102;53.548;9.926;2023-01-23T14:48:30;25.25;;;11.82;;
17953;SDS011;9102;53.548;9.926;2023-01-23T14:51:02;20.67;;;10.77;;
17953;SDS011;9102;53.548;9.926;2023-01-23T14:53:40;19.92;;;10.20;;
17953;SDS011;9102;53.548;9.926;2023-01-23T14:56:08;22.25;;;11.25;;
17953;SDS011;9102;53.548;9.926;2023-01-23T14:58:36;18.02;;;10.55;;
17953;SDS011;9102;53.548;9.926;2023-01-23T15:01:04;19.52;;;10.20;;
17953;SDS011;9102;53.548;9.926;2023-01-23T15:03:39;23.15;;;11.30;;
17953;SDS011;9102;53.548;9.926;2023-01-23T15:06:09;22.88;;;11.80;;
17953;SDS011;9102;53.548;9.926;2023-01-23T15:08:39;23.98;;;11.13;;
17953;SDS011;9102;53.548;9.926;2023-01-23T15:11:07;20.42;;;11.85;;
17953;SDS011;9102;53.548;9.926;2023-01-23T15:13:41;19.60;;;10.63;;
17953;SDS011;9102;53.548;9.926;2023-01-23T15:16:12;23.50;;;11.38;;
17953;SDS011;9102;53.548;9.926;2023-01-23T15:18:51;18.95;;;10.98;;
17953;SDS011;9102;53.548;9.926;2023-01-23T15:21:27;20.60;;;11.13;;
17953;SDS011;9102;53.548;9.926;2023-01-23T15:23:58;21.15;;;10.60;;
17953;SDS011;9102;53.548;9.926;2023-01-23T15:26:40;21.33;;;10.55;;
17953;SDS011;9102;53.548;9.926;2023-01-23T15:29:16;22.10;;;10.73;;
17953;SDS011;9102;53.548;9.926;2023-01-23T15:31:45;19.83;;;10.75;;
17953;SDS011;9102;53.548;9.926;2023-01-23T15:34:19;21.40;;;11.07;;
17953;SDS011;9102;53.548;9.926;2023-01-23T15:36:50;22.67;;;11.40;;